Time;durP1;ratioP1;P1;durP2;ratioP2;P2;SDS_P1;SDS_P2;PMS_P1;PMS_P2;Temp;Humidity;BMP_temperature;BMP_pressure;BME280_temperature;BME280_humidity;BME280_pressure;Samples;Min_cycle;Max_cycle;Signal;HPM_P1;HPM_P2
2022/07/21 00:01:45;;;;;;;;;;;;;;;27.10;100.00;99088.19;5048377;28;19920;-48
2022/07/21 00:04:10;;;;;;;;;;;;;;;26.34;100.00;99074.53;5050078;28;19924;-47
2022/07/21 00:06:36;;;;;;;;;;;;;;;26.81;100.00;99071.75;5050102;28;20030;-49
2022/07/21 00:09:01;;;;;;;;;;;;;;;25.78;100.00;99069.22;5051054;28;19964;-48
2022/07/21 00:11:26;;;;;;;;;;;;;;;25.73;100.00;99076.72;5052219;28;19955;-50
2022/07/21 00:13:51;;;;;;;;;;;;;;;25.18;100.00;99076.53;5051218;28;19927;-49
2022/07/21 00:16:17;;;;;;;;;;;;;;;25.51;100.00;99083.16;5050284;28;20268;-50
2022/07/21 00:18:42;;;;;;;;;;;;;;;25.88;100.00;99080.56;5049825;28;19986;-49
2022/07/21 00:21:07;;;;;;;;;;;;;;;25.30;100.00;99075.44;5049080;28;19966;-45
2022/07/21 00:23:33;;;;;;;;;;;;;;;24.87;100.00;99079.31;5050206;28;20040;-48
2022/07/21 00:25:58;;;;;;;;;;;;;;;25.57;100.00;99081.78;5053829;28;19920;-47
2022/07/21 00:28:23;;;;;;;;;;;;;;;25.17;100.00;99075.69;5051661;28;20527;-48
2022/07/21 00:30:48;;;;;;;;;;;;;;;25.09;100.00;99078.22;5051571;28;20376;-47
2022/07/21 00:33:14;;;;;;;;;;;;;;;26.04;100.00;99108.16;5050360;28;19931;-49
2022/07/21 00:35:39;;;;;;;;;;;;;;;26.76;100.00;99116.28;5050021;28;19932;-51
2022/07/21 00:38:04;;;;;;;;;;;;;;;26.26;100.00;99115.69;5052243;28;19927;-48
2022/07/21 00:40:29;;;;;;;;;;;;;;;25.86;100.00;99111.53;5052252;28;20348;-51
2022/07/21 00:42:55;;;;;;;;;;;;;;;25.78;100.00;99095.59;5051599;28;19988;-47
2022/07/21 00:45:20;;;;;;;;;;;;;;;25.97;100.00;99093.88;5051883;28;19921;-50
2022/07/21 00:47:45;;;;;;;;;;;;;;;26.46;100.00;99102.41;5052535;28;19920;-50
2022/07/21 00:50:12;;;;;;;;;;;;;;;26.35;100.00;99108.72;5049083;28;20047;-49
2022/07/21 00:52:37;;;;;;;;;;;;;;;27.23;100.00;99118.72;5052621;28;19916;-47
2022/07/21 00:55:03;;;;;;;;;;;;;;;27.08;100.00;99116.56;5048473;28;20013;-46
2022/07/21 00:57:28;;;;;;;;;;;;;;;27.74;100.00;99117.09;5052277;28;19928;-46
2022/07/21 00:59:53;;;;;;;;;;;;;;;26.91;100.00;99120.03;5046254;28;19920;-46
2022/07/21 01:02:19;;;;;;;;;;;;;;;26.57;100.00;99128.66;5050485;28;19924;-48
2022/07/21 01:04:44;;;;;;;;;;;;;;;26.48;100.00;99124.22;5049836;28;19920;-47
2022/07/21 01:07:09;;;;;;;;;;;;;;;26.80;100.00;99128.19;5049108;28;20794;-47
2022/07/21 01:09:35;;;;;;;;;;;;;;;26.94;100.00;99127.69;5052316;28;19916;-48
2022/07/21 01:12:00;;;;;;;;;;;;;;;26.82;100.00;99118.31;5051755;28;19927;-47
2022/07/21 01:14:25;;;;;;;;;;;;;;;25.97;100.00;99109.72;5033375;28;19925;-48
2022/07/21 01:16:51;;;;;;;;;;;;;;;25.56;100.00;99109.13;5047753;28;19935;-46
2022/07/21 01:19:16;;;;;;;;;;;;;;;25.73;100.00;99103.13;5050436;28;19920;-47
2022/07/21 01:21:43;;;;;;;;;;;;;;;25.77;100.00;99101.84;5050625;28;19928;-49
2022/07/21 01:24:08;;;;;;;;;;;;;;;25.31;100.00;99097.34;5050839;28;20028;-49
2022/07/21 01:26:53;;;;;;;;;;;;;;;25.71;100.00;99088.41;5050946;28;19917;-47
2022/07/21 01:29:19;;;;;;;;;;;;;;;25.41;100.00;99099.03;5049183;28;19984;-45
2022/07/21 01:31:45;;;;;;;;;;;;;;;25.60;100.00;99102.59;5050594;28;20792;-47
2022/07/21 01:34:11;;;;;;;;;;;;;;;26.38;100.00;99112.88;5051668;28;20739;-50
2022/07/21 01:36:36;;;;;;;;;;;;;;;26.57;100.00;99118.06;5050082;28;20026;-50
2022/07/21 01:41:46;;;;;;;;;;;;;;;26.91;100.00;99114.75;5054595;28;20395;-48
2022/07/21 01:44:12;;;;;;;;;;;;;;;26.86;100.00;99109.09;5055159;28;19925;-48
2022/07/21 01:46:38;;;;;;;;;;;;;;;27.05;100.00;99116.91;5055149;28;19965;-49
2022/07/21 01:49:03;;;;;;;;;;;;;;;27.21;100.00;99104.81;5053155;28;20386;-47
2022/07/21 01:51:29;;;;;;;;;;;;;;;26.62;100.00;99105.25;5053744;28;19936;-46
2022/07/21 01:53:54;;;;;;;;;;;;;;;25.16;100.00;99089.03;5051945;28;19920;-47
2022/07/21 01:56:21;;;;;;;;;;;;;;;24.96;100.00;99094.31;5053622;28;20937;-47
2022/07/21 01:58:46;;;;;;;;;;;;;;;25.49;100.00;99092.19;5050273;28;20031;-46
2022/07/21 02:01:11;;;;;;;;;;;;;;;26.25;100.00;99095.56;5055388;28;20360;-49
2022/07/21 02:03:36;;;;;;;;;;;;;;;26.53;100.00;99105.28;5053800;28;19942;-48
2022/07/21 02:06:04;;;;;;;;;;;;;;;27.21;100.00;99099.50;5052104;28;20225;-49
2022/07/21 02:08:29;;;;;;;;;;;;;;;27.18;100.00;99111.19;5051838;28;20580;-47
2022/07/21 02:10:54;;;;;;;;;;;;;;;27.00;100.00;99103.28;5052617;28;19928;-47
2022/07/21 02:13:19;;;;;;;;;;;;;;;27.41;100.00;99101.00;5052684;28;19927;-46
2022/07/21 02:15:45;;;;;;;;;;;;;;;27.74;100.00;99090.63;5053832;28;19920;-47
2022/07/21 02:18:10;;;;;;;;;;;;;;;27.75;100.00;99092.28;5053704;28;19999;-46
2022/07/21 02:20:35;;;;;;;;;;;;;;;27.84;100.00;99104.59;5051910;28;20027;-47
2022/07/21 02:23:00;;;;;;;;;;;;;;;27.91;100.00;99113.56;5055315;28;20008;-46
2022/07/21 02:25:25;;;;;;;;;;;;;;;27.49;100.00;99116.94;5054052;28;19916;-47
2022/07/21 02:27:51;;;;;;;;;;;;;;;28.01;100.00;99123.22;5051249;28;19924;-46
2022/07/21 02:30:16;;;;;;;;;;;;;;;27.56;100.00;99134.84;5050259;28;19963;-46
2022/07/21 02:32:41;;;;;;;;;;;;;;;27.11;100.00;99134.78;5054680;28;20353;-46
2022/07/21 02:35:07;;;;;;;;;;;;;;;27.11;100.00;99136.59;5054002;28;19927;-46
2022/07/21 02:37:32;;;;;;;;;;;;;;;27.24;100.00;99133.59;5053013;28;19924;-47
2022/07/21 02:39:57;;;;;;;;;;;;;;;27.50;100.00;99130.97;5052311;28;20903;-47
2022/07/21 02:42:22;;;;;;;;;;;;;;;27.63;100.00;99125.28;5051482;28;19955;-47
2022/07/21 02:44:47;;;;;;;;;;;;;;;26.98;100.00;99126.41;5054090;28;19983;-47
2022/07/21 02:47:13;;;;;;;;;;;;;;;27.20;100.00;99127.78;5053435;28;19956;-46
2022/07/21 02:49:38;;;;;;;;;;;;;;;27.20;100.00;99129.56;5051741;28;19963;-46
2022/07/21 02:52:04;;;;;;;;;;;;;;;27.63;100.00;99130.59;5051129;28;20736;-48
2022/07/21 02:54:29;;;;;;;;;;;;;;;27.17;100.00;99138.63;5051947;28;19924;-47
2022/07/21 02:56:54;;;;;;;;;;;;;;;26.44;100.00;99133.41;5050792;28;20378;-47
2022/07/21 02:59:20;;;;;;;;;;;;;;;26.47;100.00;99135.75;5052661;28;19926;-46
2022/07/21 03:01:45;;;;;;;;;;;;;;;26.72;100.00;99125.47;5050912;28;20702;-46
2022/07/21 03:04:11;;;;;;;;;;;;;;;27.07;100.00;99119.38;5052129;28;19924;-46
2022/07/21 03:06:37;;;;;;;;;;;;;;;27.10;100.00;99121.72;5053426;28;19920;-46
2022/07/21 03:09:02;;;;;;;;;;;;;;;26.57;100.00;99139.22;5052925;28;19921;-45
2022/07/21 03:11:27;;;;;;;;;;;;;;;26.10;100.00;99146.34;5054431;28;19916;-46
2022/07/21 03:13:53;;;;;;;;;;;;;;;25.55;100.00;99141.75;5050418;28;19920;-47
2022/07/21 03:16:18;;;;;;;;;;;;;;;25.87;100.00;99147.53;5053662;28;20011;-49
2022/07/21 03:18:43;;;;;;;;;;;;;;;25.24;100.00;99145.34;5050191;28;20038;-49
2022/07/21 03:21:08;;;;;;;;;;;;;;;25.52;100.00;99145.50;5053430;28;19946;-49
2022/07/21 03:23:34;;;;;;;;;;;;;;;25.39;100.00;99137.88;5051824;28;19917;-47
2022/07/21 03:25:59;;;;;;;;;;;;;;;25.81;100.00;99137.50;5054423;28;20019;-45
2022/07/21 03:28:24;;;;;;;;;;;;;;;25.95;100.00;99135.41;5051891;28;20042;-47
2022/07/21 03:30:49;;;;;;;;;;;;;;;25.22;100.00;99130.66;5049818;28;20000;-45
2022/07/21 03:33:15;;;;;;;;;;;;;;;25.58;100.00;99130.91;5051669;28;19924;-47
2022/07/21 03:35:40;;;;;;;;;;;;;;;25.30;100.00;99130.81;5050704;28;19924;-46
2022/07/21 03:38:05;;;;;;;;;;;;;;;26.20;100.00;99128.66;5053364;28;20039;-47
2022/07/21 03:40:31;;;;;;;;;;;;;;;25.15;100.00;99134.78;5051561;28;20019;-45
2022/07/21 03:42:58;;;;;;;;;;;;;;;26.01;100.00;99122.47;5052518;28;19994;-47
2022/07/21 03:45:23;;;;;;;;;;;;;;;25.13;100.00;99136.72;5048970;28;19951;-48
2022/07/21 03:47:49;;;;;;;;;;;;;;;25.46;100.00;99128.41;5051490;28;20019;-47
2022/07/21 03:50:17;;;;;;;;;;;;;;;25.40;100.00;99134.25;5051098;28;20013;-48
2022/07/21 03:52:42;;;;;;;;;;;;;;;25.80;100.00;99124.47;5052116;28;19920;-47
2022/07/21 03:55:07;;;;;;;;;;;;;;;25.39;100.00;99129.97;5051771;28;19952;-46
2022/07/21 03:57:40;;;;;;;;;;;;;;;25.31;100.00;99135.09;5051701;28;20058;-46
2022/07/21 04:00:07;;;;;;;;;;;;;;;25.73;100.00;99120.72;5050896;28;19920;-50
2022/07/21 04:02:32;;;;;;;;;;;;;;;25.94;100.00;99117.94;5049329;28;19916;-46
2022/07/21 04:04:58;;;;;;;;;;;;;;;26.33;100.00;99110.66;5052214;28;19927;-46
2022/07/21 04:07:23;;;;;;;;;;;;;;;26.25;100.00;99110.56;5051931;28;19959;-46
2022/07/21 04:09:48;;;;;;;;;;;;;;;25.97;100.00;99109.72;5052476;28;20989;-45
2022/07/21 04:12:13;;;;;;;;;;;;;;;25.46;100.00;99109.97;5050184;28;20369;-45
2022/07/21 04:14:39;;;;;;;;;;;;;;;25.90;100.00;99096.28;5050695;28;20321;-48
2022/07/21 04:17:04;;;;;;;;;;;;;;;25.95;100.00;99106.38;5052453;28;19947;-50
2022/07/21 04:19:29;;;;;;;;;;;;;;;26.38;100.00;99097.03;5048152;28;20017;-47
2022/07/21 04:21:54;;;;;;;;;;;;;;;26.56;100.00;99086.53;5052531;28;19968;-47
2022/07/21 04:24:20;;;;;;;;;;;;;;;25.83;100.00;99088.06;5050422;28;19955;-49
2022/07/21 04:26:45;;;;;;;;;;;;;;;25.83;100.00;99082.78;5052974;28;19964;-47
2022/07/21 04:29:10;;;;;;;;;;;;;;;25.58;100.00;99073.72;5050311;28;19924;-46
2022/07/21 04:31:35;;;;;;;;;;;;;;;26.09;100.00;99071.59;5052803;28;20365;-46
2022/07/21 04:34:00;;;;;;;;;;;;;;;26.27;100.00;99069.84;5050965;28;20963;-46
2022/07/21 04:36:26;;;;;;;;;;;;;;;24.57;100.00;99075.00;5052830;28;20372;-47
2022/07/21 04:38:51;;;;;;;;;;;;;;;26.02;100.00;99052.03;5050316;28;19920;-46
2022/07/21 04:41:16;;;;;;;;;;;;;;;25.67;100.00;99050.91;5050167;28;19920;-49
2022/07/21 04:43:41;;;;;;;;;;;;;;;26.41;100.00;99054.47;5051520;28;19926;-49
2022/07/21 04:46:07;;;;;;;;;;;;;;;27.09;100.00;99062.72;5051483;28;19950;-46
2022/07/21 04:48:32;;;;;;;;;;;;;;;27.09;100.00;99065.34;5051428;28;19943;-47
2022/07/21 04:50:57;;;;;;;;;;;;;;;27.31;100.00;99068.53;5048277;28;20384;-47
2022/07/21 04:53:22;;;;;;;;;;;;;;;27.28;100.00;99063.56;5051052;28;19920;-48
2022/07/21 04:55:48;;;;;;;;;;;;;;;27.33;100.00;99063.94;5046344;28;20000;-46
2022/07/21 04:58:13;;;;;;;;;;;;;;;27.90;100.00;99058.97;5051892;28;19931;-49
2022/07/21 05:00:38;;;;;;;;;;;;;;;27.78;100.00;99073.47;5051574;28;19928;-47
2022/07/21 05:03:03;;;;;;;;;;;;;;;27.68;100.00;99078.03;5051116;28;19923;-49
2022/07/21 05:05:29;;;;;;;;;;;;;;;27.68;100.00;99086.78;5050335;28;19921;-50
2022/07/21 05:07:54;;;;;;;;;;;;;;;28.03;100.00;99100.06;5052502;28;19921;-50
2022/07/21 05:10:21;;;;;;;;;;;;;;;28.17;100.00;99115.38;5050008;28;19921;-46
2022/07/21 05:12:46;;;;;;;;;;;;;;;28.31;100.00;99117.41;5051862;28;19920;-47
2022/07/21 05:15:11;;;;;;;;;;;;;;;27.63;100.00;99126.13;5054130;28;19924;-47
2022/07/21 05:17:37;;;;;;;;;;;;;;;27.73;100.00;99115.41;5055312;28;19968;-48
2022/07/21 05:20:03;;;;;;;;;;;;;;;28.50;100.00;99115.50;5056238;28;19916;-51
2022/07/21 05:22:28;;;;;;;;;;;;;;;27.96;100.00;99110.44;5056310;28;19927;-47
2022/07/21 05:24:53;;;;;;;;;;;;;;;27.75;100.00;99103.69;5053893;28;19920;-50
2022/07/21 05:27:19;;;;;;;;;;;;;;;27.33;100.00;99108.88;5055273;28;19924;-47
2022/07/21 05:29:44;;;;;;;;;;;;;;;28.33;100.00;99102.19;5055992;28;19986;-50
2022/07/21 05:32:10;;;;;;;;;;;;;;;28.54;100.00;99103.59;5053913;28;20262;-49
2022/07/21 05:34:35;;;;;;;;;;;;;;;28.75;100.00;99103.97;5054484;28;19920;-47
2022/07/21 05:37:01;;;;;;;;;;;;;;;28.60;100.00;99105.56;5054006;28;20003;-49
2022/07/21 05:39:26;;;;;;;;;;;;;;;27.54;100.00;99105.88;5056011;28;19956;-49
2022/07/21 05:41:51;;;;;;;;;;;;;;;27.60;100.00;99115.84;5057607;28;20330;-50
2022/07/21 05:44:16;;;;;;;;;;;;;;;27.35;100.00;99117.50;5056739;28;19956;-49
2022/07/21 05:46:42;;;;;;;;;;;;;;;26.12;100.00;99123.28;5055288;28;19991;-47
2022/07/21 05:49:07;;;;;;;;;;;;;;;25.42;100.00;99127.03;5055318;28;19920;-51
2022/07/21 05:51:32;;;;;;;;;;;;;;;26.80;100.00;99128.19;5055169;28;19982;-49
2022/07/21 05:53:57;;;;;;;;;;;;;;;27.33;100.00;99130.03;5057566;28;19923;-47
2022/07/21 05:56:23;;;;;;;;;;;;;;;26.71;100.00;99135.22;5057479;28;19932;-48
2022/07/21 05:58:48;;;;;;;;;;;;;;;26.14;100.00;99130.06;5055169;28;19921;-49
2022/07/21 06:01:13;;;;;;;;;;;;;;;26.31;100.00;99140.84;5056629;28;19938;-47
2022/07/21 06:03:41;;;;;;;;;;;;;;;26.63;100.00;99135.94;5057217;28;19916;-47
2022/07/21 06:06:07;;;;;;;;;;;;;;;26.72;100.00;99136.88;5057610;28;19944;-49
2022/07/21 06:08:32;;;;;;;;;;;;;;;27.13;100.00;99129.34;5055028;28;20309;-51
2022/07/21 06:10:58;;;;;;;;;;;;;;;27.19;100.00;99134.03;5056939;28;20529;-51
2022/07/21 06:13:23;;;;;;;;;;;;;;;26.58;100.00;99143.50;5056378;28;19920;-52
2022/07/21 06:15:48;;;;;;;;;;;;;;;26.87;100.00;99145.13;5047983;28;19974;-51
2022/07/21 06:18:14;;;;;;;;;;;;;;;26.79;100.00;99143.22;5045368;28;19928;-51
2022/07/21 06:20:40;;;;;;;;;;;;;;;27.15;100.00;99147.72;5054042;28;20368;-50
2022/07/21 06:23:05;;;;;;;;;;;;;;;26.21;100.00;99149.63;5056237;28;19959;-49
2022/07/21 06:25:30;;;;;;;;;;;;;;;27.13;100.00;99151.31;5052690;28;19921;-51
2022/07/21 06:27:56;;;;;;;;;;;;;;;26.85;100.00;99155.03;5050596;28;20313;-51
2022/07/21 06:30:21;;;;;;;;;;;;;;;27.26;100.00;99144.88;5054643;28;20005;-51
2022/07/21 06:32:46;;;;;;;;;;;;;;;26.73;100.00;99153.56;5055468;28;19969;-50
2022/07/21 06:35:11;;;;;;;;;;;;;;;27.07;100.00;99148.44;5053993;28;19924;-52
2022/07/21 06:37:37;;;;;;;;;;;;;;;27.91;100.00;99139.22;5056270;28;20645;-52
2022/07/21 06:40:03;;;;;;;;;;;;;;;27.67;100.00;99143.34;5056007;28;19920;-52
2022/07/21 06:42:28;;;;;;;;;;;;;;;27.69;100.00;99141.38;5055339;28;20469;-49
2022/07/21 06:44:53;;;;;;;;;;;;;;;27.93;100.00;99137.25;5055793;28;19973;-49
2022/07/21 06:47:19;;;;;;;;;;;;;;;28.20;100.00;99141.53;5055286;28;19967;-51
2022/07/21 06:49:44;;;;;;;;;;;;;;;27.39;100.00;99145.28;5054943;28;19974;-53
2022/07/21 06:52:09;;;;;;;;;;;;;;;27.18;100.00;99139.47;5049079;28;19977;-53
2022/07/21 06:54:34;;;;;;;;;;;;;;;28.24;100.00;99129.63;5047328;28;19966;-52
2022/07/21 06:56:59;;;;;;;;;;;;;;;28.45;100.00;99125.72;5055385;28;20010;-52
2022/07/21 06:59:25;;;;;;;;;;;;;;;27.80;100.00;99132.31;5056116;28;19932;-52
2022/07/21 07:01:50;;;;;;;;;;;;;;;27.02;100.00;99132.22;5055092;28;19977;-50
2022/07/21 07:04:15;;;;;;;;;;;;;;;28.54;100.00;99130.09;5055258;28;19969;-53
2022/07/21 07:06:40;;;;;;;;;;;;;;;27.13;100.00;99129.34;5053369;28;20415;-52
2022/07/21 07:09:06;;;;;;;;;;;;;;;28.12;100.00;99136.16;5054756;28;20655;-51
2022/07/21 07:11:33;;;;;;;;;;;;;;;28.56;100.00;99144.00;5054388;28;20385;-51
2022/07/21 07:13:58;;;;;;;;;;;;;;;28.46;100.00;99148.56;5053193;28;20468;-50
2022/07/21 07:16:23;;;;;;;;;;;;;;;28.09;100.00;99157.69;5053280;28;19921;-51
2022/07/21 07:18:48;;;;;;;;;;;;;;;28.52;100.00;99158.56;5054182;28;19927;-53
2022/07/21 07:21:13;;;;;;;;;;;;;;;27.96;100.00;99152.81;5054607;28;19975;-52
2022/07/21 07:23:39;;;;;;;;;;;;;;;28.56;100.00;99160.72;5054592;28;20551;-50
2022/07/21 07:26:04;;;;;;;;;;;;;;;29.00;100.00;99162.31;5053649;28;20401;-53
2022/07/21 07:28:29;;;;;;;;;;;;;;;27.84;100.00;99170.78;5054314;28;19995;-53
2022/07/21 07:30:54;;;;;;;;;;;;;;;27.83;100.00;99174.38;5048449;28;20015;-51
2022/07/21 07:33:21;;;;;;;;;;;;;;;28.31;100.00;99174.84;5053274;28;19959;-50
2022/07/21 07:35:46;;;;;;;;;;;;;;;28.09;100.00;99178.88;5055307;28;19920;-51
2022/07/21 07:38:13;;;;;;;;;;;;;;;28.56;100.00;99170.50;5052176;28;19978;-52
2022/07/21 07:40:38;;;;;;;;;;;;;;;28.75;100.00;99175.53;5051444;28;19921;-53
2022/07/21 07:43:03;;;;;;;;;;;;;;;27.95;100.00;99178.44;5052867;28;19925;-53
2022/07/21 07:45:28;;;;;;;;;;;;;;;27.68;100.00;99181.22;5054769;28;19920;-52
2022/07/21 07:47:54;;;;;;;;;;;;;;;28.46;100.00;99180.34;5053275;28;19990;-53
2022/07/21 07:50:19;;;;;;;;;;;;;;;28.42;100.00;99173.72;5053005;28;20017;-50
2022/07/21 07:52:44;;;;;;;;;;;;;;;27.71;100.00;99184.41;5034356;28;20019;-50
2022/07/21 07:55:10;;;;;;;;;;;;;;;27.72;100.00;99177.28;5053439;28;19972;-53
2022/07/21 07:57:36;;;;;;;;;;;;;;;27.87;100.00;99180.22;5053156;28;19955;-52
2022/07/21 08:00:03;;;;;;;;;;;;;;;28.51;100.00;99183.38;5053750;28;19920;-50
2022/07/21 08:02:28;;;;;;;;;;;;;;;28.56;100.00;99187.22;5050414;28;19928;-53
2022/07/21 08:04:53;;;;;;;;;;;;;;;29.09;100.00;99181.75;5052442;28;19927;-52
2022/07/21 08:07:19;;;;;;;;;;;;;;;29.36;100.00;99172.66;5049624;28;19947;-53
2022/07/21 08:09:44;;;;;;;;;;;;;;;29.15;100.00;99178.47;5047272;28;20023;-51
2022/07/21 08:12:09;;;;;;;;;;;;;;;29.72;100.00;99172.31;5052178;28;19982;-52
2022/07/21 08:14:34;;;;;;;;;;;;;;;29.93;100.00;99169.97;5052718;28;20416;-54
2022/07/21 08:16:59;;;;;;;;;;;;;;;30.05;100.00;99156.34;5051486;28;19925;-54
2022/07/21 08:19:26;;;;;;;;;;;;;;;30.21;100.00;99150.97;5049838;28;19921;-53
2022/07/21 08:21:51;;;;;;;;;;;;;;;29.51;100.00;99159.56;5051578;28;20428;-53
2022/07/21 08:24:16;;;;;;;;;;;;;;;29.78;100.00;99158.38;5051692;28;19999;-53
2022/07/21 08:26:42;;;;;;;;;;;;;;;30.05;100.00;99157.16;5052211;28;19920;-51
2022/07/21 08:29:07;;;;;;;;;;;;;;;28.52;100.00;99164.69;5048485;28;19924;-53
2022/07/21 08:31:32;;;;;;;;;;;;;;;29.69;100.00;99167.38;5050951;28;20015;-53
2022/07/21 08:33:57;;;;;;;;;;;;;;;29.76;100.00;99173.66;5052943;28;20393;-52
2022/07/21 08:36:23;;;;;;;;;;;;;;;29.12;100.00;99179.59;5049092;28;20394;-53
2022/07/21 08:38:48;;;;;;;;;;;;;;;28.80;100.00;99183.00;5046239;28;19950;-51
2022/07/21 08:41:14;;;;;;;;;;;;;;;29.22;100.00;99179.47;5051002;28;19920;-51
2022/07/21 08:43:40;;;;;;;;;;;;;;;29.37;100.00;99176.97;5046868;28;19921;-53
2022/07/21 08:46:05;;;;;;;;;;;;;;;29.85;100.00;99162.03;5048101;28;19928;-52
2022/07/21 08:48:30;;;;;;;;;;;;;;;30.02;100.00;99168.97;5051141;28;19979;-51
2022/07/21 08:50:56;;;;;;;;;;;;;;;29.96;99.62;99166.97;5048128;28;21055;-53
2022/07/21 08:53:21;;;;;;;;;;;;;;;29.84;100.00;99165.69;5051946;28;20294;-53
2022/07/21 08:55:47;;;;;;;;;;;;;;;29.85;100.00;99161.19;5045461;28;19982;-53
2022/07/21 08:58:12;;;;;;;;;;;;;;;30.26;98.62;99164.56;5047297;28;19952;-51
2022/07/21 09:00:39;;;;;;;;;;;;;;;29.60;96.46;99159.41;5048720;28;20405;-52
2022/07/21 09:03:07;;;;;;;;;;;;;;;29.78;97.69;99161.03;5050651;28;19921;-54
2022/07/21 09:05:33;;;;;;;;;;;;;;;30.17;99.27;99155.78;5050323;28;19923;-53
2022/07/21 09:07:58;;;;;;;;;;;;;;;30.13;98.49;99164.28;5046382;28;19920;-53
2022/07/21 09:10:24;;;;;;;;;;;;;;;29.81;99.96;99161.56;5050649;28;19927;-52
2022/07/21 09:12:52;;;;;;;;;;;;;;;30.95;96.94;99155.97;5050316;28;20439;-52
2022/07/21 09:15:18;;;;;;;;;;;;;;;31.00;95.65;99166.91;5050292;28;20393;-53
2022/07/21 09:17:44;;;;;;;;;;;;;;;30.66;94.73;99165.44;5049883;28;19960;-51
2022/07/21 09:20:29;;;;;;;;;;;;;;;30.48;94.85;99162.19;5045031;28;19942;-53
2022/07/21 09:23:20;;;;;;;;;;;;;;;30.63;93.36;99160.44;5050693;28;19950;-54
2022/07/21 09:25:50;;;;;;;;;;;;;;;29.24;97.09;99163.38;5047751;28;21000;-54
2022/07/21 09:28:22;;;;;;;;;;;;;;;28.74;99.06;99165.94;5048581;28;19924;-53
2022/07/21 09:30:55;;;;;;;;;;;;;;;30.70;95.76;99157.91;5048881;28;19917;-54
2022/07/21 09:33:31;;;;;;;;;;;;;;;31.04;91.49;99161.06;5050797;28;19920;-54
2022/07/21 09:36:02;;;;;;;;;;;;;;;31.17;86.19;99165.78;5051228;28;19920;-52
2022/07/21 09:38:29;;;;;;;;;;;;;;;30.14;93.21;99171.25;5050474;28;19925;-52
2022/07/21 09:40:56;;;;;;;;;;;;;;;30.24;94.91;99171.88;5051002;28;19973;-53
2022/07/21 09:43:47;;;;;;;;;;;;;;;30.78;93.61;99166.66;5047631;28;19917;-51
2022/07/21 09:46:20;;;;;;;;;;;;;;;30.41;89.49;99172.69;5046057;28;19924;-54
2022/07/21 09:48:49;;;;;;;;;;;;;;;30.31;91.68;99175.56;5049714;28;19920;-51
2022/07/21 09:51:25;;;;;;;;;;;;;;;31.38;88.07;99164.28;5049704;28;20027;-53
2022/07/21 09:53:55;;;;;;;;;;;;;;;31.52;86.34;99160.03;5049811;28;20325;-53
2022/07/21 09:56:21;;;;;;;;;;;;;;;32.44;84.93;99159.75;5050881;28;19920;-53
2022/07/21 09:58:47;;;;;;;;;;;;;;;32.19;84.15;99153.88;5050425;28;19928;-54
2022/07/21 10:01:12;;;;;;;;;;;;;;;33.00;82.57;99156.47;5050223;28;20282;-52
2022/07/21 10:03:37;;;;;;;;;;;;;;;32.83;82.74;99151.38;5051130;28;19917;-55
2022/07/21 10:06:02;;;;;;;;;;;;;;;32.17;82.56;99167.38;5052298;28;19971;-54
2022/07/21 10:08:28;;;;;;;;;;;;;;;30.85;86.54;99159.69;5053469;28;20632;-54
2022/07/21 10:10:53;;;;;;;;;;;;;;;30.55;89.17;99160.50;5053749;28;20751;-53
2022/07/21 10:13:18;;;;;;;;;;;;;;;32.47;82.13;99144.19;5050330;28;20372;-54
2022/07/21 10:15:45;;;;;;;;;;;;;;;33.48;80.81;99151.38;5052404;28;20001;-55
2022/07/21 10:18:10;;;;;;;;;;;;;;;32.48;76.94;99151.19;5051874;28;20450;-54
2022/07/21 10:20:36;;;;;;;;;;;;;;;32.75;81.18;99151.50;5048828;28;19920;-54
2022/07/21 10:23:07;;;;;;;;;;;;;;;32.84;77.31;99154.88;5051926;28;19993;-53
2022/07/21 10:25:33;;;;;;;;;;;;;;;32.82;75.42;99156.91;5053773;28;19921;-54
2022/07/21 10:28:10;;;;;;;;;;;;;;;32.69;74.97;99157.59;5052730;28;20352;-53
2022/07/21 10:30:46;;;;;;;;;;;;;;;31.73;79.31;99162.84;5049770;28;19920;-54
2022/07/21 10:33:12;;;;;;;;;;;;;;;32.81;79.55;99156.09;5052307;28;19920;-54
2022/07/21 10:35:41;;;;;;;;;;;;;;;30.77;83.67;99159.72;5053216;28;19924;-54
2022/07/21 10:38:06;;;;;;;;;;;;;;;33.04;79.95;99161.25;5053223;28;19925;-55
2022/07/21 10:40:32;;;;;;;;;;;;;;;32.23;76.99;99157.84;5051111;28;19927;-54
2022/07/21 10:43:00;;;;;;;;;;;;;;;32.32;76.30;99151.41;5052364;28;19962;-55
2022/07/21 10:45:34;;;;;;;;;;;;;;;31.92;77.61;99156.16;5051289;28;20292;-55
2022/07/21 10:48:00;;;;;;;;;;;;;;;31.88;75.99;99152.19;5050563;28;19960;-54
2022/07/21 10:50:41;;;;;;;;;;;;;;;32.62;77.12;99151.38;5049301;28;20019;-54
2022/07/21 10:53:16;;;;;;;;;;;;;;;32.89;74.07;99147.97;5050097;28;19924;-54
2022/07/21 10:55:48;;;;;;;;;;;;;;;33.12;73.41;99153.16;5053522;28;19926;-54
2022/07/21 10:58:15;;;;;;;;;;;;;;;34.42;71.59;99142.97;5050917;28;20477;-53
2022/07/21 11:00:44;;;;;;;;;;;;;;;33.54;67.89;99140.75;5045553;28;19936;-54
2022/07/21 11:03:17;;;;;;;;;;;;;;;33.70;71.01;99139.66;5050627;28;19935;-53
2022/07/21 11:06:01;;;;;;;;;;;;;;;33.29;72.97;99152.88;5051942;28;19920;-54
2022/07/21 11:08:30;;;;;;;;;;;;;;;33.16;73.40;99150.91;5054480;28;19923;-54
2022/07/21 11:10:58;;;;;;;;;;;;;;;33.63;71.13;99151.34;5050309;28;19959;-54
2022/07/21 11:13:26;;;;;;;;;;;;;;;33.01;69.94;99152.81;5051840;28;19927;-54
2022/07/21 11:15:59;;;;;;;;;;;;;;;30.92;76.52;99149.16;5054487;28;19940;-54
2022/07/21 11:18:25;;;;;;;;;;;;;;;32.64;73.15;99144.84;5054779;28;19927;-39
2022/07/21 11:21:00;;;;;;;;;;;;;;;32.65;73.61;99140.31;5048760;28;19928;-40
2022/07/21 11:23:35;;;;;;;;;;;;;;;32.75;69.26;99135.50;5048168;28;19998;-40
2022/07/21 11:26:00;;;;;;;;;;;;;;;31.82;73.26;99135.13;5050199;28;19920;-40
2022/07/21 11:28:25;;;;;;;;;;;;;;;31.25;72.95;99139.13;5053997;28;20279;-39
2022/07/21 11:31:05;;;;;;;;;;;;;;;32.86;67.70;99132.31;5053555;28;20305;-39
2022/07/21 11:33:30;;;;;;;;;;;;;;;31.54;75.31;99134.88;5053957;28;19925;-40
2022/07/21 11:35:55;;;;;;;;;;;;;;;32.78;70.15;99136.97;5050106;28;19921;-40
2022/07/21 11:38:20;;;;;;;;;;;;;;;31.75;75.26;99141.34;5052816;28;20007;-39
2022/07/21 11:40:45;;;;;;;;;;;;;;;31.77;77.35;99149.97;5050911;28;19920;-39
2022/07/21 11:43:11;;;;;;;;;;;;;;;30.23;83.05;99154.28;5053514;28;19959;-39
2022/07/21 11:45:36;;;;;;;;;;;;;;;32.03;80.04;99153.06;5052768;28;19999;-39
2022/07/21 11:48:01;;;;;;;;;;;;;;;32.25;77.60;99150.47;5049738;28;19970;-39
2022/07/21 11:50:27;;;;;;;;;;;;;;;32.97;76.63;99146.19;5049533;28;19921;-39
2022/07/21 11:52:53;;;;;;;;;;;;;;;32.60;77.60;99153.41;5051478;28;19920;-39
2022/07/21 11:55:18;;;;;;;;;;;;;;;30.84;78.94;99147.41;5051803;28;20895;-39
2022/07/21 11:57:44;;;;;;;;;;;;;;;32.54;78.14;99154.13;5051504;28;19930;-39
2022/07/21 12:00:09;;;;;;;;;;;;;;;32.25;78.35;99155.78;5051597;28;19920;-39
2022/07/21 12:02:34;;;;;;;;;;;;;;;31.88;79.56;99161.00;5052789;28;19936;-39
2022/07/21 12:05:00;;;;;;;;;;;;;;;32.46;76.72;99155.06;5052538;28;20058;-39
2022/07/21 12:07:26;;;;;;;;;;;;;;;31.13;81.16;99161.81;5053574;28;19975;-39
2022/07/21 12:09:52;;;;;;;;;;;;;;;29.97;88.09;99166.00;5049817;28;19924;-39
2022/07/21 12:12:33;;;;;;;;;;;;;;;30.26;84.81;99159.25;5049782;28;20646;-39
2022/07/21 12:15:08;;;;;;;;;;;;;;;30.41;84.56;99162.88;5049871;28;19951;-39
2022/07/21 12:17:37;;;;;;;;;;;;;;;29.93;86.86;99164.66;5049612;28;20290;-39
2022/07/21 12:20:04;;;;;;;;;;;;;;;29.27;87.11;99163.06;5051151;28;19921;-39
2022/07/21 12:22:48;;;;;;;;;;;;;;;29.73;87.06;99158.06;5050358;28;20133;-39
2022/07/21 12:25:14;;;;;;;;;;;;;;;30.01;87.42;99167.28;5051399;28;19974;-39
2022/07/21 12:27:44;;;;;;;;;;;;;;;29.27;89.57;99168.34;5048764;28;19929;-39
2022/07/21 12:30:10;;;;;;;;;;;;;;;29.90;88.51;99165.03;5050938;28;19920;-39
2022/07/21 12:32:44;;;;;;;;;;;;;;;29.72;91.00;99169.66;5052888;28;19916;-39
2022/07/21 12:35:36;;;;;;;;;;;;;;;28.92;92.45;99172.91;5051188;28;20098;-39
2022/07/21 12:38:06;;;;;;;;;;;;;;;29.04;91.06;99176.91;5049378;28;19955;-39
2022/07/21 12:40:31;;;;;;;;;;;;;;;30.08;88.65;99178.06;5051020;28;20009;-39